Country
Station

 

Weather  for  Charlottetown, P. E. I.  -  Canada    Canada

  
19 °C (66 °F)
    
 
 

Current METAR for Charlottetown, P. E. I. is :

CYYG 171100Z 22010KT 15SM FEW020 FEW120 SCT280 19/17 A2991 RMK CU1AC1CI2 CU TR SLP129 DENSITY ALT 800FT

 

This is a report for Charlottetown, P. E. I. - Canada.
 
The report was made 16 minutes ago, at 11:00 UTC .
The wind was blowing at a speed of 5.1 meters per second (11.5 miles per hour) from southwest (220°).
 
The temperature was 19 °C (66 °F), with a dew-point at 17 °C (63 °F).
The atmospheric pressure was 1013 hPa (29.91 inHg).
The relative humidity was 88.2%.
 
There were a few clouds at a height of 610 meters (2000 feet), a few clouds at a height of 3658 meters (12000 feet) and scattered clouds at a height of 8534 meters (28000 feet).
 
The overall visibility was 24.1 kilometers (15.0 miles).
 

 
 
 
 

Country :   A   B   C   D   E   F   G   H   I   J   K   L   M   N   O   P   Q   R   S   T   U   V   W   Y   Z

 

Site Info  |  Disclaimer  |  Credits  |  Privacy
Contact us  |  Add to favorites
© 2013-2018 METARs - All rights reserved